sensor_id;sensor_type;location;lat;lon;timestamp;P1;durP1;ratioP1;P2;durP2;ratioP2
3845;SDS011;1938;50.812;7.738;2022-07-17T00:01:59;7.87;;;2.53;;
3845;SDS011;1938;50.812;7.738;2022-07-17T00:04:25;2.77;;;1.97;;
3845;SDS011;1938;50.812;7.738;2022-07-17T00:06:50;5.20;;;2.37;;
3845;SDS011;1938;50.812;7.738;2022-07-17T00:09:16;4.30;;;1.90;;
3845;SDS011;1938;50.812;7.738;2022-07-17T00:11:41;5.93;;;2.83;;
3845;SDS011;1938;50.812;7.738;2022-07-17T00:14:08;5.40;;;2.30;;
3845;SDS011;1938;50.812;7.738;2022-07-17T00:16:33;4.30;;;2.23;;
3845;SDS011;1938;50.812;7.738;2022-07-17T00:18:59;8.87;;;2.23;;
3845;SDS011;1938;50.812;7.738;2022-07-17T00:21:24;2.80;;;1.90;;
3845;SDS011;1938;50.812;7.738;2022-07-17T00:23:50;8.90;;;2.80;;
3845;SDS011;1938;50.812;7.738;2022-07-17T00:26:16;6.17;;;2.40;;
3845;SDS011;1938;50.812;7.738;2022-07-17T00:28:42;7.47;;;2.37;;
3845;SDS011;1938;50.812;7.738;2022-07-17T00:31:07;5.30;;;2.87;;
3845;SDS011;1938;50.812;7.738;2022-07-17T00:33:33;4.00;;;2.23;;
3845;SDS011;1938;50.812;7.738;2022-07-17T00:35:58;3.57;;;2.20;;
3845;SDS011;1938;50.812;7.738;2022-07-17T00:38:24;7.00;;;2.57;;
3845;SDS011;1938;50.812;7.738;2022-07-17T00:40:53;5.60;;;2.10;;
3845;SDS011;1938;50.812;7.738;2022-07-17T00:43:22;4.30;;;2.27;;
3845;SDS011;1938;50.812;7.738;2022-07-17T00:45:58;4.10;;;2.27;;
3845;SDS011;1938;50.812;7.738;2022-07-17T00:48:25;4.63;;;2.77;;
3845;SDS011;1938;50.812;7.738;2022-07-17T00:50:51;7.03;;;2.37;;
3845;SDS011;1938;50.812;7.738;2022-07-17T00:53:17;5.70;;;2.70;;
3845;SDS011;1938;50.812;7.738;2022-07-17T00:55:43;7.77;;;3.90;;
3845;SDS011;1938;50.812;7.738;2022-07-17T00:58:17;4.40;;;2.53;;
3845;SDS011;1938;50.812;7.738;2022-07-17T01:00:44;10.93;;;2.70;;
3845;SDS011;1938;50.812;7.738;2022-07-17T01:03:11;4.37;;;2.37;;
3845;SDS011;1938;50.812;7.738;2022-07-17T01:05:36;7.13;;;2.70;;
3845;SDS011;1938;50.812;7.738;2022-07-17T01:08:02;14.23;;;2.77;;
3845;SDS011;1938;50.812;7.738;2022-07-17T01:10:27;8.30;;;2.60;;
3845;SDS011;1938;50.812;7.738;2022-07-17T01:12:53;5.17;;;3.00;;
3845;SDS011;1938;50.812;7.738;2022-07-17T01:15:19;8.40;;;2.97;;
3845;SDS011;1938;50.812;7.738;2022-07-17T01:17:44;6.20;;;2.70;;
3845;SDS011;1938;50.812;7.738;2022-07-17T01:20:10;7.83;;;2.87;;
3845;SDS011;1938;50.812;7.738;2022-07-17T01:22:44;5.27;;;2.40;;
3845;SDS011;1938;50.812;7.738;2022-07-17T01:25:15;3.50;;;2.13;;
3845;SDS011;1938;50.812;7.738;2022-07-17T01:27:42;3.00;;;2.00;;
3845;SDS011;1938;50.812;7.738;2022-07-17T01:30:07;7.20;;;3.10;;
3845;SDS011;1938;50.812;7.738;2022-07-17T01:32:34;9.50;;;2.67;;
3845;SDS011;1938;50.812;7.738;2022-07-17T01:35:02;6.10;;;2.90;;
3845;SDS011;1938;50.812;7.738;2022-07-17T01:37:28;7.57;;;1.80;;
3845;SDS011;1938;50.812;7.738;2022-07-17T01:39:54;4.60;;;2.30;;
3845;SDS011;1938;50.812;7.738;2022-07-17T01:42:21;9.70;;;2.80;;
3845;SDS011;1938;50.812;7.738;2022-07-17T01:44:47;7.83;;;2.83;;
3845;SDS011;1938;50.812;7.738;2022-07-17T01:47:14;5.97;;;2.43;;
3845;SDS011;1938;50.812;7.738;2022-07-17T01:49:42;9.63;;;2.67;;
3845;SDS011;1938;50.812;7.738;2022-07-17T01:52:12;5.73;;;2.40;;
3845;SDS011;1938;50.812;7.738;2022-07-17T01:54:38;5.53;;;2.47;;
3845;SDS011;1938;50.812;7.738;2022-07-17T01:57:04;8.00;;;2.90;;
3845;SDS011;1938;50.812;7.738;2022-07-17T01:59:30;12.30;;;2.83;;
3845;SDS011;1938;50.812;7.738;2022-07-17T02:01:55;5.83;;;2.87;;
3845;SDS011;1938;50.812;7.738;2022-07-17T02:04:21;4.30;;;2.87;;
3845;SDS011;1938;50.812;7.738;2022-07-17T02:06:46;4.10;;;2.30;;
3845;SDS011;1938;50.812;7.738;2022-07-17T02:09:12;2.83;;;2.53;;
3845;SDS011;1938;50.812;7.738;2022-07-17T02:11:37;6.30;;;2.70;;
3845;SDS011;1938;50.812;7.738;2022-07-17T02:14:03;4.20;;;2.60;;
3845;SDS011;1938;50.812;7.738;2022-07-17T02:16:30;6.70;;;3.27;;
3845;SDS011;1938;50.812;7.738;2022-07-17T02:18:55;8.10;;;2.80;;
3845;SDS011;1938;50.812;7.738;2022-07-17T02:21:21;5.80;;;2.57;;
3845;SDS011;1938;50.812;7.738;2022-07-17T02:23:46;6.57;;;3.30;;
3845;SDS011;1938;50.812;7.738;2022-07-17T02:26:12;4.60;;;2.63;;
3845;SDS011;1938;50.812;7.738;2022-07-17T02:28:37;7.07;;;2.50;;
3845;SDS011;1938;50.812;7.738;2022-07-17T02:31:03;16.53;;;3.23;;
3845;SDS011;1938;50.812;7.738;2022-07-17T02:33:28;5.60;;;2.97;;
3845;SDS011;1938;50.812;7.738;2022-07-17T02:35:54;5.67;;;2.30;;
3845;SDS011;1938;50.812;7.738;2022-07-17T02:38:20;6.80;;;2.70;;
3845;SDS011;1938;50.812;7.738;2022-07-17T02:40:46;13.07;;;2.50;;
3845;SDS011;1938;50.812;7.738;2022-07-17T02:43:12;4.90;;;2.37;;
3845;SDS011;1938;50.812;7.738;2022-07-17T02:45:37;3.80;;;2.47;;
3845;SDS011;1938;50.812;7.738;2022-07-17T02:48:03;6.87;;;3.27;;
3845;SDS011;1938;50.812;7.738;2022-07-17T02:50:29;11.57;;;2.50;;
3845;SDS011;1938;50.812;7.738;2022-07-17T02:52:54;9.30;;;3.03;;
3845;SDS011;1938;50.812;7.738;2022-07-17T02:55:20;7.13;;;2.50;;
3845;SDS011;1938;50.812;7.738;2022-07-17T02:57:46;4.70;;;2.80;;
3845;SDS011;1938;50.812;7.738;2022-07-17T03:00:12;5.23;;;3.00;;
3845;SDS011;1938;50.812;7.738;2022-07-17T03:02:40;8.53;;;3.03;;
3845;SDS011;1938;50.812;7.738;2022-07-17T03:05:07;6.10;;;2.50;;
3845;SDS011;1938;50.812;7.738;2022-07-17T03:07:33;7.00;;;2.60;;
3845;SDS011;1938;50.812;7.738;2022-07-17T03:09:58;8.63;;;3.03;;
3845;SDS011;1938;50.812;7.738;2022-07-17T03:12:24;5.07;;;2.80;;
3845;SDS011;1938;50.812;7.738;2022-07-17T03:14:50;5.43;;;2.40;;
3845;SDS011;1938;50.812;7.738;2022-07-17T03:17:16;5.90;;;2.67;;
3845;SDS011;1938;50.812;7.738;2022-07-17T03:19:42;4.57;;;3.00;;
3845;SDS011;1938;50.812;7.738;2022-07-17T03:22:07;9.33;;;3.13;;
3845;SDS011;1938;50.812;7.738;2022-07-17T03:24:33;4.80;;;2.80;;
3845;SDS011;1938;50.812;7.738;2022-07-17T03:26:58;6.43;;;2.53;;
3845;SDS011;1938;50.812;7.738;2022-07-17T03:29:24;6.83;;;3.10;;
3845;SDS011;1938;50.812;7.738;2022-07-17T03:31:50;11.43;;;3.10;;
3845;SDS011;1938;50.812;7.738;2022-07-17T03:34:16;11.20;;;3.07;;
3845;SDS011;1938;50.812;7.738;2022-07-17T03:36:42;6.30;;;2.60;;
3845;SDS011;1938;50.812;7.738;2022-07-17T03:39:08;5.57;;;3.00;;
3845;SDS011;1938;50.812;7.738;2022-07-17T03:41:34;7.70;;;2.33;;
3845;SDS011;1938;50.812;7.738;2022-07-17T03:44:00;9.80;;;2.93;;
3845;SDS011;1938;50.812;7.738;2022-07-17T03:46:26;8.60;;;3.33;;
3845;SDS011;1938;50.812;7.738;2022-07-17T03:48:52;6.80;;;3.17;;
3845;SDS011;1938;50.812;7.738;2022-07-17T03:51:18;8.47;;;2.90;;
3845;SDS011;1938;50.812;7.738;2022-07-17T03:53:43;8.00;;;3.17;;
3845;SDS011;1938;50.812;7.738;2022-07-17T03:56:09;5.00;;;2.57;;
3845;SDS011;1938;50.812;7.738;2022-07-17T03:58:35;7.50;;;3.30;;
3845;SDS011;1938;50.812;7.738;2022-07-17T04:01:02;7.30;;;2.77;;
3845;SDS011;1938;50.812;7.738;2022-07-17T04:03:27;4.83;;;2.40;;
3845;SDS011;1938;50.812;7.738;2022-07-17T04:05:53;4.17;;;2.07;;
3845;SDS011;1938;50.812;7.738;2022-07-17T04:08:19;9.53;;;3.10;;
3845;SDS011;1938;50.812;7.738;2022-07-17T04:10:44;4.80;;;2.30;;
3845;SDS011;1938;50.812;7.738;2022-07-17T04:13:10;7.13;;;2.87;;
3845;SDS011;1938;50.812;7.738;2022-07-17T04:15:36;10.80;;;2.70;;
3845;SDS011;1938;50.812;7.738;2022-07-17T04:18:20;6.70;;;2.63;;
3845;SDS011;1938;50.812;7.738;2022-07-17T04:20:49;4.47;;;2.13;;
3845;SDS011;1938;50.812;7.738;2022-07-17T04:23:16;5.83;;;3.17;;
3845;SDS011;1938;50.812;7.738;2022-07-17T04:25:42;4.50;;;2.40;;
3845;SDS011;1938;50.812;7.738;2022-07-17T04:28:09;17.70;;;2.93;;
3845;SDS011;1938;50.812;7.738;2022-07-17T04:30:35;11.70;;;2.80;;
3845;SDS011;1938;50.812;7.738;2022-07-17T04:33:01;5.43;;;3.13;;
3845;SDS011;1938;50.812;7.738;2022-07-17T04:35:27;3.80;;;2.30;;
3845;SDS011;1938;50.812;7.738;2022-07-17T04:37:53;6.33;;;2.67;;
3845;SDS011;1938;50.812;7.738;2022-07-17T04:40:18;4.40;;;2.20;;
3845;SDS011;1938;50.812;7.738;2022-07-17T04:42:44;5.23;;;2.13;;
3845;SDS011;1938;50.812;7.738;2022-07-17T04:45:11;14.27;;;2.20;;
3845;SDS011;1938;50.812;7.738;2022-07-17T04:47:38;5.17;;;2.50;;
3845;SDS011;1938;50.812;7.738;2022-07-17T04:50:04;4.80;;;2.63;;
3845;SDS011;1938;50.812;7.738;2022-07-17T04:52:31;3.60;;;2.20;;
3845;SDS011;1938;50.812;7.738;2022-07-17T04:54:56;4.37;;;1.90;;
3845;SDS011;1938;50.812;7.738;2022-07-17T04:57:22;5.07;;;2.50;;
3845;SDS011;1938;50.812;7.738;2022-07-17T04:59:47;5.80;;;2.23;;
3845;SDS011;1938;50.812;7.738;2022-07-17T05:02:13;8.23;;;2.37;;
3845;SDS011;1938;50.812;7.738;2022-07-17T05:04:38;3.73;;;1.90;;
3845;SDS011;1938;50.812;7.738;2022-07-17T05:07:04;4.93;;;2.00;;
3845;SDS011;1938;50.812;7.738;2022-07-17T05:09:30;5.50;;;2.30;;
3845;SDS011;1938;50.812;7.738;2022-07-17T05:11:55;3.33;;;2.03;;
3845;SDS011;1938;50.812;7.738;2022-07-17T05:14:21;4.10;;;1.90;;
3845;SDS011;1938;50.812;7.738;2022-07-17T05:16:46;5.27;;;2.43;;
3845;SDS011;1938;50.812;7.738;2022-07-17T05:19:12;5.03;;;1.90;;
3845;SDS011;1938;50.812;7.738;2022-07-17T05:21:38;3.13;;;1.80;;
3845;SDS011;1938;50.812;7.738;2022-07-17T05:24:04;5.03;;;2.00;;
3845;SDS011;1938;50.812;7.738;2022-07-17T05:26:30;3.97;;;2.10;;
3845;SDS011;1938;50.812;7.738;2022-07-17T05:28:55;3.93;;;2.20;;
3845;SDS011;1938;50.812;7.738;2022-07-17T05:31:21;4.73;;;1.80;;
3845;SDS011;1938;50.812;7.738;2022-07-17T05:33:46;3.10;;;1.40;;
3845;SDS011;1938;50.812;7.738;2022-07-17T05:36:12;3.30;;;1.90;;
3845;SDS011;1938;50.812;7.738;2022-07-17T05:38:38;5.20;;;2.10;;
3845;SDS011;1938;50.812;7.738;2022-07-17T05:41:04;4.83;;;1.60;;
3845;SDS011;1938;50.812;7.738;2022-07-17T05:43:29;4.60;;;2.00;;
3845;SDS011;1938;50.812;7.738;2022-07-17T05:45:55;3.63;;;1.57;;
3845;SDS011;1938;50.812;7.738;2022-07-17T05:48:22;5.80;;;1.97;;
3845;SDS011;1938;50.812;7.738;2022-07-17T05:50:48;2.90;;;1.70;;
3845;SDS011;1938;50.812;7.738;2022-07-17T05:53:13;2.63;;;1.47;;
3845;SDS011;1938;50.812;7.738;2022-07-17T05:55:39;6.00;;;1.70;;
3845;SDS011;1938;50.812;7.738;2022-07-17T05:58:06;4.97;;;1.50;;
3845;SDS011;1938;50.812;7.738;2022-07-17T06:00:31;5.70;;;1.73;;
3845;SDS011;1938;50.812;7.738;2022-07-17T06:02:57;6.23;;;1.70;;
3845;SDS011;1938;50.812;7.738;2022-07-17T06:05:23;3.30;;;1.70;;
3845;SDS011;1938;50.812;7.738;2022-07-17T06:07:52;9.10;;;2.17;;
3845;SDS011;1938;50.812;7.738;2022-07-17T06:10:18;4.67;;;1.53;;
3845;SDS011;1938;50.812;7.738;2022-07-17T06:12:44;5.00;;;1.77;;
3845;SDS011;1938;50.812;7.738;2022-07-17T06:15:09;5.30;;;1.50;;
3845;SDS011;1938;50.812;7.738;2022-07-17T06:17:35;2.50;;;1.40;;
3845;SDS011;1938;50.812;7.738;2022-07-17T06:20:01;4.47;;;1.60;;
3845;SDS011;1938;50.812;7.738;2022-07-17T06:22:28;2.50;;;1.37;;
3845;SDS011;1938;50.812;7.738;2022-07-17T06:24:53;5.47;;;1.70;;
3845;SDS011;1938;50.812;7.738;2022-07-17T06:27:19;2.10;;;1.43;;
3845;SDS011;1938;50.812;7.738;2022-07-17T06:29:46;1.40;;;1.00;;
3845;SDS011;1938;50.812;7.738;2022-07-17T06:32:12;3.67;;;1.03;;
3845;SDS011;1938;50.812;7.738;2022-07-17T06:34:38;1.70;;;1.33;;
3845;SDS011;1938;50.812;7.738;2022-07-17T06:37:04;4.67;;;1.63;;
3845;SDS011;1938;50.812;7.738;2022-07-17T06:39:29;2.70;;;1.00;;
3845;SDS011;1938;50.812;7.738;2022-07-17T06:41:55;2.17;;;1.50;;
3845;SDS011;1938;50.812;7.738;2022-07-17T06:44:20;1.40;;;1.10;;
3845;SDS011;1938;50.812;7.738;2022-07-17T06:46:46;3.00;;;1.40;;
3845;SDS011;1938;50.812;7.738;2022-07-17T06:49:11;1.93;;;1.20;;
3845;SDS011;1938;50.812;7.738;2022-07-17T06:51:37;1.23;;;0.97;;
3845;SDS011;1938;50.812;7.738;2022-07-17T06:54:04;2.00;;;1.20;;
3845;SDS011;1938;50.812;7.738;2022-07-17T06:56:29;3.40;;;1.50;;
3845;SDS011;1938;50.812;7.738;2022-07-17T06:58:56;3.20;;;1.40;;
3845;SDS011;1938;50.812;7.738;2022-07-17T07:01:21;2.53;;;1.10;;
3845;SDS011;1938;50.812;7.738;2022-07-17T07:03:47;4.23;;;1.60;;
3845;SDS011;1938;50.812;7.738;2022-07-17T07:06:12;4.20;;;1.23;;
3845;SDS011;1938;50.812;7.738;2022-07-17T07:08:38;2.03;;;1.17;;
3845;SDS011;1938;50.812;7.738;2022-07-17T07:11:04;3.40;;;1.37;;
3845;SDS011;1938;50.812;7.738;2022-07-17T07:13:29;2.80;;;1.40;;
3845;SDS011;1938;50.812;7.738;2022-07-17T07:15:55;3.40;;;1.67;;
3845;SDS011;1938;50.812;7.738;2022-07-17T07:18:21;2.30;;;1.20;;
3845;SDS011;1938;50.812;7.738;2022-07-17T07:20:47;5.33;;;1.40;;
3845;SDS011;1938;50.812;7.738;2022-07-17T07:23:13;3.70;;;1.20;;
3845;SDS011;1938;50.812;7.738;2022-07-17T07:25:39;1.00;;;0.83;;
3845;SDS011;1938;50.812;7.738;2022-07-17T07:28:05;1.60;;;1.03;;
3845;SDS011;1938;50.812;7.738;2022-07-17T07:30:31;1.90;;;1.27;;
3845;SDS011;1938;50.812;7.738;2022-07-17T07:32:58;6.53;;;5.30;;
3845;SDS011;1938;50.812;7.738;2022-07-17T07:35:23;2.23;;;1.17;;
3845;SDS011;1938;50.812;7.738;2022-07-17T07:37:49;1.90;;;1.20;;
3845;SDS011;1938;50.812;7.738;2022-07-17T07:40:15;1.53;;;1.03;;
3845;SDS011;1938;50.812;7.738;2022-07-17T07:42:40;4.43;;;1.23;;
3845;SDS011;1938;50.812;7.738;2022-07-17T07:45:06;4.73;;;1.20;;
3845;SDS011;1938;50.812;7.738;2022-07-17T07:47:32;1.27;;;0.87;;
3845;SDS011;1938;50.812;7.738;2022-07-17T07:50:04;3.37;;;1.33;;
3845;SDS011;1938;50.812;7.738;2022-07-17T07:52:31;3.03;;;1.20;;
3845;SDS011;1938;50.812;7.738;2022-07-17T07:54:56;3.50;;;1.30;;
3845;SDS011;1938;50.812;7.738;2022-07-17T07:57:22;5.30;;;1.53;;
3845;SDS011;1938;50.812;7.738;2022-07-17T07:59:47;3.67;;;1.40;;
3845;SDS011;1938;50.812;7.738;2022-07-17T08:02:14;3.60;;;1.10;;
3845;SDS011;1938;50.812;7.738;2022-07-17T08:04:39;3.90;;;1.00;;
3845;SDS011;1938;50.812;7.738;2022-07-17T08:07:05;1.90;;;1.10;;
3845;SDS011;1938;50.812;7.738;2022-07-17T08:09:30;3.00;;;0.93;;
3845;SDS011;1938;50.812;7.738;2022-07-17T08:11:56;2.03;;;0.90;;
3845;SDS011;1938;50.812;7.738;2022-07-17T08:14:21;1.57;;;0.90;;
3845;SDS011;1938;50.812;7.738;2022-07-17T08:16:47;1.80;;;1.20;;
3845;SDS011;1938;50.812;7.738;2022-07-17T08:19:12;2.13;;;1.10;;
3845;SDS011;1938;50.812;7.738;2022-07-17T08:21:38;2.63;;;1.10;;
3845;SDS011;1938;50.812;7.738;2022-07-17T08:24:04;2.20;;;0.97;;
3845;SDS011;1938;50.812;7.738;2022-07-17T08:26:29;2.90;;;1.47;;
3845;SDS011;1938;50.812;7.738;2022-07-17T08:28:55;2.60;;;1.00;;
3845;SDS011;1938;50.812;7.738;2022-07-17T08:31:20;1.67;;;1.10;;
3845;SDS011;1938;50.812;7.738;2022-07-17T08:33:46;2.83;;;1.03;;
3845;SDS011;1938;50.812;7.738;2022-07-17T08:36:12;4.73;;;1.10;;
3845;SDS011;1938;50.812;7.738;2022-07-17T08:38:37;5.47;;;1.50;;
3845;SDS011;1938;50.812;7.738;2022-07-17T08:41:03;6.40;;;1.53;;
3845;SDS011;1938;50.812;7.738;2022-07-17T08:43:29;2.63;;;1.20;;
3845;SDS011;1938;50.812;7.738;2022-07-17T08:45:55;1.87;;;1.00;;
3845;SDS011;1938;50.812;7.738;2022-07-17T08:48:22;3.00;;;1.53;;
3845;SDS011;1938;50.812;7.738;2022-07-17T08:50:51;1.83;;;1.33;;
3845;SDS011;1938;50.812;7.738;2022-07-17T08:53:20;3.37;;;1.50;;
3845;SDS011;1938;50.812;7.738;2022-07-17T08:55:46;2.10;;;1.00;;
3845;SDS011;1938;50.812;7.738;2022-07-17T08:58:15;4.00;;;1.23;;
3845;SDS011;1938;50.812;7.738;2022-07-17T09:00:41;4.00;;;1.50;;
3845;SDS011;1938;50.812;7.738;2022-07-17T09:03:08;2.60;;;1.00;;
3845;SDS011;1938;50.812;7.738;2022-07-17T09:05:40;2.73;;;1.40;;
3845;SDS011;1938;50.812;7.738;2022-07-17T09:08:07;1.60;;;1.00;;
3845;SDS011;1938;50.812;7.738;2022-07-17T09:10:38;2.37;;;1.00;;
3845;SDS011;1938;50.812;7.738;2022-07-17T09:13:22;2.23;;;0.90;;
3845;SDS011;1938;50.812;7.738;2022-07-17T09:16:17;1.83;;;1.00;;
3845;SDS011;1938;50.812;7.738;2022-07-17T09:18:43;4.30;;;1.23;;
3845;SDS011;1938;50.812;7.738;2022-07-17T09:21:21;4.50;;;1.60;;
3845;SDS011;1938;50.812;7.738;2022-07-17T09:23:59;5.37;;;1.20;;
3845;SDS011;1938;50.812;7.738;2022-07-17T09:26:25;2.60;;;1.40;;
3845;SDS011;1938;50.812;7.738;2022-07-17T09:28:51;3.73;;;2.03;;
3845;SDS011;1938;50.812;7.738;2022-07-17T09:31:24;4.10;;;1.40;;
3845;SDS011;1938;50.812;7.738;2022-07-17T09:33:51;5.37;;;1.60;;
3845;SDS011;1938;50.812;7.738;2022-07-17T09:36:16;1.63;;;1.10;;
3845;SDS011;1938;50.812;7.738;2022-07-17T09:38:42;5.00;;;1.67;;
3845;SDS011;1938;50.812;7.738;2022-07-17T09:46:28;2.23;;;1.40;;
3845;SDS011;1938;50.812;7.738;2022-07-17T09:48:56;2.50;;;1.00;;
3845;SDS011;1938;50.812;7.738;2022-07-17T09:51:27;2.20;;;1.07;;
3845;SDS011;1938;50.812;7.738;2022-07-17T09:53:55;3.13;;;1.53;;
3845;SDS011;1938;50.812;7.738;2022-07-17T09:56:25;2.80;;;1.10;;
3845;SDS011;1938;50.812;7.738;2022-07-17T09:58:53;3.23;;;1.10;;
3845;SDS011;1938;50.812;7.738;2022-07-17T10:01:21;2.00;;;1.13;;
3845;SDS011;1938;50.812;7.738;2022-07-17T10:03:48;2.00;;;1.10;;
3845;SDS011;1938;50.812;7.738;2022-07-17T10:06:15;7.17;;;1.20;;
3845;SDS011;1938;50.812;7.738;2022-07-17T10:08:41;3.40;;;1.40;;
3845;SDS011;1938;50.812;7.738;2022-07-17T10:11:07;4.87;;;1.03;;
3845;SDS011;1938;50.812;7.738;2022-07-17T10:13:36;3.60;;;1.40;;
3845;SDS011;1938;50.812;7.738;2022-07-17T10:16:05;4.00;;;0.87;;
3845;SDS011;1938;50.812;7.738;2022-07-17T10:18:35;2.27;;;1.00;;
3845;SDS011;1938;50.812;7.738;2022-07-17T10:23:35;1.87;;;1.20;;
3845;SDS011;1938;50.812;7.738;2022-07-17T10:26:01;1.60;;;0.97;;
3845;SDS011;1938;50.812;7.738;2022-07-17T10:28:40;2.17;;;1.30;;
3845;SDS011;1938;50.812;7.738;2022-07-17T10:31:06;1.83;;;1.10;;
3845;SDS011;1938;50.812;7.738;2022-07-17T10:33:32;5.90;;;1.70;;
3845;SDS011;1938;50.812;7.738;2022-07-17T10:35:57;3.03;;;1.23;;
3845;SDS011;1938;50.812;7.738;2022-07-17T10:38:24;4.07;;;1.10;;
3845;SDS011;1938;50.812;7.738;2022-07-17T10:41:01;10.40;;;2.00;;
3845;SDS011;1938;50.812;7.738;2022-07-17T10:43:28;4.33;;;1.30;;
3845;SDS011;1938;50.812;7.738;2022-07-17T10:46:09;6.00;;;1.50;;
3845;SDS011;1938;50.812;7.738;2022-07-17T10:48:35;2.03;;;1.20;;
3845;SDS011;1938;50.812;7.738;2022-07-17T10:51:04;3.60;;;1.20;;
3845;SDS011;1938;50.812;7.738;2022-07-17T10:53:30;6.10;;;1.40;;
3845;SDS011;1938;50.812;7.738;2022-07-17T10:55:58;2.30;;;1.10;;
3845;SDS011;1938;50.812;7.738;2022-07-17T10:58:31;3.97;;;1.30;;
3845;SDS011;1938;50.812;7.738;2022-07-17T11:01:22;4.00;;;1.53;;
3845;SDS011;1938;50.812;7.738;2022-07-17T11:03:49;2.70;;;1.40;;
3845;SDS011;1938;50.812;7.738;2022-07-17T11:06:20;4.80;;;1.40;;
3845;SDS011;1938;50.812;7.738;2022-07-17T11:08:56;5.03;;;1.10;;
3845;SDS011;1938;50.812;7.738;2022-07-17T11:11:41;4.10;;;1.47;;
3845;SDS011;1938;50.812;7.738;2022-07-17T11:14:08;3.40;;;1.17;;
3845;SDS011;1938;50.812;7.738;2022-07-17T11:16:36;3.40;;;1.60;;
3845;SDS011;1938;50.812;7.738;2022-07-17T11:19:02;1.80;;;1.17;;
3845;SDS011;1938;50.812;7.738;2022-07-17T11:21:28;3.20;;;1.30;;
3845;SDS011;1938;50.812;7.738;2022-07-17T11:23:55;2.73;;;1.40;;
3845;SDS011;1938;50.812;7.738;2022-07-17T11:26:22;6.40;;;1.50;;
3845;SDS011;1938;50.812;7.738;2022-07-17T11:28:49;5.50;;;1.30;;
3845;SDS011;1938;50.812;7.738;2022-07-17T11:31:16;8.43;;;5.50;;
3845;SDS011;1938;50.812;7.738;2022-07-17T11:33:50;9.33;;;1.80;;
3845;SDS011;1938;50.812;7.738;2022-07-17T11:36:24;7.20;;;1.53;;
3845;SDS011;1938;50.812;7.738;2022-07-17T11:39:02;3.30;;;1.30;;
3845;SDS011;1938;50.812;7.738;2022-07-17T11:41:52;6.20;;;1.40;;
3845;SDS011;1938;50.812;7.738;2022-07-17T11:44:21;6.60;;;1.17;;
3845;SDS011;1938;50.812;7.738;2022-07-17T11:46:49;2.20;;;1.00;;
3845;SDS011;1938;50.812;7.738;2022-07-17T11:49:29;2.63;;;1.40;;
3845;SDS011;1938;50.812;7.738;2022-07-17T11:51:56;2.53;;;1.30;;
3845;SDS011;1938;50.812;7.738;2022-07-17T11:54:24;7.33;;;1.20;;
3845;SDS011;1938;50.812;7.738;2022-07-17T11:56:55;3.07;;;1.07;;
3845;SDS011;1938;50.812;7.738;2022-07-17T11:59:27;4.03;;;1.20;;
3845;SDS011;1938;50.812;7.738;2022-07-17T12:01:55;5.33;;;1.40;;
3845;SDS011;1938;50.812;7.738;2022-07-17T12:04:21;2.63;;;1.10;;
3845;SDS011;1938;50.812;7.738;2022-07-17T12:06:58;1.30;;;1.10;;
3845;SDS011;1938;50.812;7.738;2022-07-17T12:09:26;3.30;;;1.40;;
3845;SDS011;1938;50.812;7.738;2022-07-17T12:11:52;2.40;;;1.40;;
3845;SDS011;1938;50.812;7.738;2022-07-17T12:14:19;4.50;;;0.90;;
3845;SDS011;1938;50.812;7.738;2022-07-17T12:16:45;2.20;;;0.90;;
3845;SDS011;1938;50.812;7.738;2022-07-17T12:19:15;2.03;;;1.30;;
3845;SDS011;1938;50.812;7.738;2022-07-17T12:22:01;3.20;;;1.30;;
3845;SDS011;1938;50.812;7.738;2022-07-17T12:24:29;2.50;;;1.20;;
3845;SDS011;1938;50.812;7.738;2022-07-17T12:26:59;3.63;;;1.33;;
3845;SDS011;1938;50.812;7.738;2022-07-17T12:29:26;3.53;;;1.10;;
3845;SDS011;1938;50.812;7.738;2022-07-17T12:32:08;5.13;;;1.30;;
3845;SDS011;1938;50.812;7.738;2022-07-17T12:34:37;2.37;;;1.13;;
3845;SDS011;1938;50.812;7.738;2022-07-17T12:37:09;6.93;;;1.63;;
3845;SDS011;1938;50.812;7.738;2022-07-17T12:39:39;3.10;;;1.20;;
3845;SDS011;1938;50.812;7.738;2022-07-17T12:42:04;5.73;;;1.07;;
3845;SDS011;1938;50.812;7.738;2022-07-17T12:44:30;1.77;;;1.10;;
3845;SDS011;1938;50.812;7.738;2022-07-17T12:46:56;2.53;;;1.20;;
3845;SDS011;1938;50.812;7.738;2022-07-17T12:49:21;2.93;;;1.13;;
3845;SDS011;1938;50.812;7.738;2022-07-17T12:51:49;2.90;;;1.00;;
3845;SDS011;1938;50.812;7.738;2022-07-17T12:54:14;4.20;;;1.30;;
3845;SDS011;1938;50.812;7.738;2022-07-17T12:56:40;1.80;;;1.20;;
3845;SDS011;1938;50.812;7.738;2022-07-17T12:59:05;2.03;;;0.93;;
3845;SDS011;1938;50.812;7.738;2022-07-17T13:01:32;5.43;;;1.80;;
3845;SDS011;1938;50.812;7.738;2022-07-17T13:03:58;2.67;;;1.13;;
3845;SDS011;1938;50.812;7.738;2022-07-17T13:06:25;2.57;;;1.00;;
3845;SDS011;1938;50.812;7.738;2022-07-17T13:08:50;2.30;;;0.90;;
3845;SDS011;1938;50.812;7.738;2022-07-17T13:11:16;2.53;;;1.10;;
3845;SDS011;1938;50.812;7.738;2022-07-17T13:13:42;1.40;;;0.87;;
3845;SDS011;1938;50.812;7.738;2022-07-17T13:16:08;2.47;;;1.10;;
3845;SDS011;1938;50.812;7.738;2022-07-17T13:18:33;1.90;;;1.10;;
3845;SDS011;1938;50.812;7.738;2022-07-17T13:20:59;3.67;;;1.47;;
3845;SDS011;1938;50.812;7.738;2022-07-17T13:23:24;2.80;;;1.33;;
3845;SDS011;1938;50.812;7.738;2022-07-17T13:25:50;2.23;;;0.90;;
3845;SDS011;1938;50.812;7.738;2022-07-17T13:28:15;3.10;;;1.53;;
3845;SDS011;1938;50.812;7.738;2022-07-17T13:30:41;4.10;;;0.90;;
3845;SDS011;1938;50.812;7.738;2022-07-17T13:33:06;4.43;;;1.40;;
3845;SDS011;1938;50.812;7.738;2022-07-17T13:35:32;1.50;;;1.17;;
3845;SDS011;1938;50.812;7.738;2022-07-17T13:37:58;4.50;;;1.70;;
3845;SDS011;1938;50.812;7.738;2022-07-17T13:40:26;3.97;;;1.27;;
3845;SDS011;1938;50.812;7.738;2022-07-17T13:42:54;2.97;;;1.10;;
3845;SDS011;1938;50.812;7.738;2022-07-17T13:45:20;1.63;;;1.07;;
3845;SDS011;1938;50.812;7.738;2022-07-17T13:47:46;3.97;;;1.50;;
3845;SDS011;1938;50.812;7.738;2022-07-17T13:50:11;2.50;;;1.10;;
3845;SDS011;1938;50.812;7.738;2022-07-17T13:52:37;2.03;;;1.17;;
3845;SDS011;1938;50.812;7.738;2022-07-17T13:55:04;6.13;;;1.10;;
3845;SDS011;1938;50.812;7.738;2022-07-17T13:57:30;2.17;;;1.33;;
3845;SDS011;1938;50.812;7.738;2022-07-17T13:59:56;2.27;;;1.20;;
3845;SDS011;1938;50.812;7.738;2022-07-17T14:02:22;4.10;;;1.27;;
3845;SDS011;1938;50.812;7.738;2022-07-17T14:04:48;5.70;;;1.30;;
3845;SDS011;1938;50.812;7.738;2022-07-17T14:07:14;3.57;;;1.00;;
3845;SDS011;1938;50.812;7.738;2022-07-17T14:09:39;3.10;;;1.63;;
3845;SDS011;1938;50.812;7.738;2022-07-17T14:12:05;3.30;;;1.63;;
3845;SDS011;1938;50.812;7.738;2022-07-17T14:14:31;6.67;;;1.57;;
3845;SDS011;1938;50.812;7.738;2022-07-17T14:16:57;5.30;;;1.77;;
3845;SDS011;1938;50.812;7.738;2022-07-17T14:19:23;2.77;;;1.17;;
3845;SDS011;1938;50.812;7.738;2022-07-17T14:21:50;3.80;;;1.50;;
3845;SDS011;1938;50.812;7.738;2022-07-17T14:24:15;3.80;;;1.40;;
3845;SDS011;1938;50.812;7.738;2022-07-17T14:26:42;5.47;;;1.63;;
3845;SDS011;1938;50.812;7.738;2022-07-17T14:29:09;3.80;;;1.40;;
3845;SDS011;1938;50.812;7.738;2022-07-17T14:31:34;2.37;;;1.23;;
3845;SDS011;1938;50.812;7.738;2022-07-17T14:34:00;7.93;;;1.40;;
3845;SDS011;1938;50.812;7.738;2022-07-17T14:36:26;3.23;;;1.20;;
3845;SDS011;1938;50.812;7.738;2022-07-17T14:38:51;6.90;;;1.83;;
3845;SDS011;1938;50.812;7.738;2022-07-17T14:41:17;3.40;;;1.50;;
3845;SDS011;1938;50.812;7.738;2022-07-17T14:43:43;2.27;;;1.20;;
3845;SDS011;1938;50.812;7.738;2022-07-17T14:46:09;6.77;;;1.10;;
3845;SDS011;1938;50.812;7.738;2022-07-17T14:48:35;3.40;;;1.60;;
3845;SDS011;1938;50.812;7.738;2022-07-17T14:51:00;1.67;;;1.10;;
3845;SDS011;1938;50.812;7.738;2022-07-17T14:53:26;2.30;;;1.43;;
3845;SDS011;1938;50.812;7.738;2022-07-17T14:55:51;3.10;;;1.57;;
3845;SDS011;1938;50.812;7.738;2022-07-17T14:58:17;3.73;;;1.17;;
3845;SDS011;1938;50.812;7.738;2022-07-17T15:00:42;2.30;;;1.27;;
3845;SDS011;1938;50.812;7.738;2022-07-17T15:03:08;1.60;;;1.20;;
3845;SDS011;1938;50.812;7.738;2022-07-17T15:05:34;2.70;;;1.33;;
3845;SDS011;1938;50.812;7.738;2022-07-17T15:08:01;3.10;;;1.20;;
3845;SDS011;1938;50.812;7.738;2022-07-17T15:10:27;3.10;;;1.10;;
3845;SDS011;1938;50.812;7.738;2022-07-17T15:12:53;2.63;;;1.20;;
3845;SDS011;1938;50.812;7.738;2022-07-17T15:15:19;2.53;;;1.33;;
3845;SDS011;1938;50.812;7.738;2022-07-17T15:17:44;2.20;;;1.07;;
3845;SDS011;1938;50.812;7.738;2022-07-17T15:20:10;2.13;;;1.23;;
3845;SDS011;1938;50.812;7.738;2022-07-17T15:22:36;2.20;;;1.77;;